Time;durP1;ratioP1;P1;durP2;ratioP2;P2;SDS_P1;SDS_P2;PMS_P1;PMS_P2;Temp;Humidity;BMP_temperature;BMP_pressure;BME280_temperature;BME280_humidity;BME280_pressure;Samples;Min_cycle;Max_cycle;Signal;HPM_P1;HPM_P2
2022/10/23 00:02:15;;;;;;;20.30;13.40;;;;;;;;;;6622699;28;20195;-81
2022/10/23 00:05:25;;;;;;;20.53;13.87;;;;;;;;;;6624066;28;20263;-83
2022/10/23 00:08:36;;;;;;;18.17;12.77;;;;;;;;;;6623732;28;20519;-82
2022/10/23 00:11:47;;;;;;;20.37;13.40;;;;;;;;;;6622605;28;20172;-82
2022/10/23 00:14:57;;;;;;;19.87;12.97;;;;;;;;;;6622533;28;20540;-82
2022/10/23 00:18:07;;;;;;;18.77;13.03;;;;;;;;;;6622455;28;20171;-82
2022/10/23 00:21:18;;;;;;;17.30;12.53;;;;;;;;;;6623159;28;20183;-82
2022/10/23 00:24:28;;;;;;;20.83;13.27;;;;;;;;;;6622727;28;20548;-82
2022/10/23 00:27:38;;;;;;;20.50;13.30;;;;;;;;;;6623033;28;20164;-82
2022/10/23 00:30:48;;;;;;;20.27;13.73;;;;;;;;;;6623020;28;20627;-82
2022/10/23 00:33:59;;;;;;;20.83;12.70;;;;;;;;;;6622272;28;20186;-82
2022/10/23 00:37:09;;;;;;;20.13;13.93;;;;;;;;;;6622947;28;20251;-82
2022/10/23 00:40:19;;;;;;;18.67;13.10;;;;;;;;;;6622866;28;20214;-82
2022/10/23 00:43:31;;;;;;;14.87;11.17;;;;;;;;;;6622511;28;20337;-82
2022/10/23 00:46:41;;;;;;;21.80;13.60;;;;;;;;;;6622442;28;20256;-83
2022/10/23 00:49:51;;;;;;;21.63;13.60;;;;;;;;;;6622354;28;20172;-83
2022/10/23 00:53:03;;;;;;;17.60;13.07;;;;;;;;;;6621944;28;20548;-83
2022/10/23 00:56:13;;;;;;;16.43;12.80;;;;;;;;;;6622006;28;20231;-83
2022/10/23 00:59:24;;;;;;;19.87;13.13;;;;;;;;;;6621786;28;20183;-82
2022/10/23 01:02:34;;;;;;;17.47;12.30;;;;;;;;;;6621747;28;20202;-82
2022/10/23 01:05:47;;;;;;;17.03;13.03;;;;;;;;;;6621816;28;20197;-82
2022/10/23 01:09:09;;;;;;;17.30;12.93;;;;;;;;;;6626008;28;20176;-83
2022/10/23 01:12:22;;;;;;;16.27;12.43;;;;;;;;;;6628104;28;20193;-83
2022/10/23 01:15:52;;;;;;;17.60;13.00;;;;;;;;;;6627263;28;20179;-83
2022/10/23 01:19:08;;;;;;;18.10;12.40;;;;;;;;;;6627204;28;20172;-83
2022/10/23 01:22:32;;;;;;;16.93;12.23;;;;;;;;;;6627415;28;20200;-82
2022/10/23 01:26:01;;;;;;;19.07;12.33;;;;;;;;;;6627146;28;20168;-82
2022/10/23 01:29:30;;;;;;;18.83;13.33;;;;;;;;;;6610173;28;20629;-82
2022/10/23 01:32:44;;;;;;;19.70;12.87;;;;;;;;;;6627179;28;20175;-82
2022/10/23 01:36:00;;;;;;;19.43;12.43;;;;;;;;;;6626412;28;20221;-82
2022/10/23 01:39:13;;;;;;;17.50;12.33;;;;;;;;;;6627146;28;20192;-81
2022/10/23 01:42:27;;;;;;;20.60;13.47;;;;;;;;;;6608671;28;20208;-81
2022/10/23 01:45:39;;;;;;;20.13;13.60;;;;;;;;;;6626502;28;20179;-81
2022/10/23 01:48:51;;;;;;;16.03;12.33;;;;;;;;;;6626079;28;20225;-81
2022/10/23 01:52:05;;;;;;;20.03;13.47;;;;;;;;;;6626452;28;20168;-81
2022/10/23 01:55:16;;;;;;;19.63;13.97;;;;;;;;;;6626712;28;20199;-81
2022/10/23 01:58:26;;;;;;;20.97;14.23;;;;;;;;;;6627615;28;20232;-81
2022/10/23 02:01:40;;;;;;;20.43;14.40;;;;;;;;;;6626483;28;20199;-82
2022/10/23 02:05:10;;;;;;;23.27;15.30;;;;;;;;;;6625603;28;20206;-81
2022/10/23 02:08:21;;;;;;;22.10;15.53;;;;;;;;;;6625025;28;20188;-81
2022/10/23 02:11:36;;;;;;;24.57;15.20;;;;;;;;;;6625942;28;20628;-81
2022/10/23 02:14:49;;;;;;;23.07;14.43;;;;;;;;;;6626220;28;20241;-82
2022/10/23 02:18:06;;;;;;;21.67;14.77;;;;;;;;;;6626934;28;20172;-81
2022/10/23 02:21:21;;;;;;;23.07;15.20;;;;;;;;;;6624928;28;20172;-81
2022/10/23 02:24:31;;;;;;;24.90;17.50;;;;;;;;;;6625609;28;20195;-81
2022/10/23 02:27:52;;;;;;;27.80;16.50;;;;;;;;;;6625251;28;20206;-80
2022/10/23 02:31:04;;;;;;;24.57;15.63;;;;;;;;;;6626326;28;20566;-81
2022/10/23 02:34:14;;;;;;;26.07;16.97;;;;;;;;;;6625423;28;20528;-81
2022/10/23 02:37:24;;;;;;;25.40;16.17;;;;;;;;;;6625786;28;20164;-82
2022/10/23 02:40:37;;;;;;;23.90;15.43;;;;;;;;;;6625643;28;20207;-82
2022/10/23 02:44:08;;;;;;;28.17;16.50;;;;;;;;;;6625095;28;20200;-82
2022/10/23 02:47:37;;;;;;;25.90;16.30;;;;;;;;;;6610499;28;20187;-82
2022/10/23 02:50:47;;;;;;;29.23;16.80;;;;;;;;;;6625477;28;20578;-82
2022/10/23 02:54:06;;;;;;;25.27;17.43;;;;;;;;;;6625310;28;20172;-82
2022/10/23 02:57:24;;;;;;;24.03;16.13;;;;;;;;;;6607325;28;20309;-83
2022/10/23 03:00:37;;;;;;;26.33;16.70;;;;;;;;;;6624852;28;20199;-83
2022/10/23 03:03:51;;;;;;;24.73;15.90;;;;;;;;;;6624209;28;20203;-83
2022/10/23 03:07:01;;;;;;;28.53;17.10;;;;;;;;;;6624227;28;20175;-82
2022/10/23 03:10:12;;;;;;;25.07;15.67;;;;;;;;;;6624501;28;20175;-83
2022/10/23 03:13:22;;;;;;;26.07;16.77;;;;;;;;;;6624435;28;20199;-83
2022/10/23 03:16:32;;;;;;;24.43;16.63;;;;;;;;;;6624673;28;20172;-83
2022/10/23 03:19:43;;;;;;;28.73;17.43;;;;;;;;;;6624794;28;20172;-83
2022/10/23 03:22:53;;;;;;;29.47;16.83;;;;;;;;;;6624415;28;20199;-83
2022/10/23 03:26:03;;;;;;;28.87;18.20;;;;;;;;;;6624087;28;20164;-83
2022/10/23 03:29:14;;;;;;;27.67;17.50;;;;;;;;;;6624490;28;20200;-82
2022/10/23 03:32:24;;;;;;;29.73;17.63;;;;;;;;;;6623845;28;20616;-82
2022/10/23 03:35:34;;;;;;;27.57;17.27;;;;;;;;;;6623879;28;20250;-82
2022/10/23 03:38:45;;;;;;;35.53;19.00;;;;;;;;;;6623711;28;20262;-82
2022/10/23 03:41:56;;;;;;;27.10;17.30;;;;;;;;;;6623635;28;20167;-82
2022/10/23 03:45:06;;;;;;;32.23;18.63;;;;;;;;;;6623623;28;20190;-83
2022/10/23 03:48:16;;;;;;;28.23;17.47;;;;;;;;;;6605659;28;20180;-83
2022/10/23 03:51:27;;;;;;;28.60;17.63;;;;;;;;;;6623115;28;20205;-83
2022/10/23 03:54:37;;;;;;;34.27;18.77;;;;;;;;;;6623451;28;20210;-83
2022/10/23 03:57:47;;;;;;;29.90;18.40;;;;;;;;;;6623929;28;20231;-82
2022/10/23 04:00:58;;;;;;;31.27;18.27;;;;;;;;;;6622865;28;20199;-82
2022/10/23 04:04:08;;;;;;;30.40;18.37;;;;;;;;;;6623144;28;20227;-82
2022/10/23 04:07:19;;;;;;;29.73;17.93;;;;;;;;;;6622763;28;20163;-82
2022/10/23 04:10:29;;;;;;;31.63;19.93;;;;;;;;;;6623123;28;20179;-82
2022/10/23 04:13:39;;;;;;;30.27;19.03;;;;;;;;;;6622992;28;20179;-83
2022/10/23 04:16:50;;;;;;;29.67;18.83;;;;;;;;;;6605133;28;20184;-82
2022/10/23 04:20:00;;;;;;;31.87;18.73;;;;;;;;;;6622829;28;20179;-82
2022/10/23 04:23:10;;;;;;;29.83;18.27;;;;;;;;;;6623017;28;20195;-82
2022/10/23 04:26:21;;;;;;;29.07;18.40;;;;;;;;;;6622775;28;20265;-81
2022/10/23 04:29:31;;;;;;;30.47;18.53;;;;;;;;;;6622647;28;20222;-81
2022/10/23 04:32:41;;;;;;;31.57;19.50;;;;;;;;;;6622663;28;20172;-81
2022/10/23 04:35:52;;;;;;;28.27;16.93;;;;;;;;;;6622918;28;20168;-81
2022/10/23 04:39:02;;;;;;;34.60;19.43;;;;;;;;;;6622490;28;20249;-82
2022/10/23 04:42:12;;;;;;;35.83;21.10;;;;;;;;;;6621961;28;20301;-82
2022/10/23 04:45:23;;;;;;;28.73;20.00;;;;;;;;;;6622090;28;20172;-82
2022/10/23 04:48:33;;;;;;;28.87;18.80;;;;;;;;;;6622747;28;20559;-82
2022/10/23 04:51:43;;;;;;;33.47;20.83;;;;;;;;;;6622672;28;20164;-82
2022/10/23 04:54:54;;;;;;;29.40;20.23;;;;;;;;;;6621969;28;20532;-82
2022/10/23 04:58:04;;;;;;;30.07;19.27;;;;;;;;;;6623444;28;20224;-82
2022/10/23 05:01:14;;;;;;;30.67;19.70;;;;;;;;;;6622463;28;20191;-82
2022/10/23 05:04:24;;;;;;;28.87;19.50;;;;;;;;;;6622471;28;20521;-82
2022/10/23 05:07:35;;;;;;;26.50;18.33;;;;;;;;;;6622141;28;20172;-82
2022/10/23 05:10:46;;;;;;;25.40;18.13;;;;;;;;;;6621723;28;20168;-82
2022/10/23 05:13:57;;;;;;;32.10;18.83;;;;;;;;;;6622418;28;20207;-82
2022/10/23 05:17:12;;;;;;;30.83;19.83;;;;;;;;;;6622769;28;20163;-82
2022/10/23 05:20:25;;;;;;;30.93;19.17;;;;;;;;;;6622404;28;20168;-82
2022/10/23 05:23:36;;;;;;;25.30;19.03;;;;;;;;;;6621546;28;20579;-82
2022/10/23 05:26:47;;;;;;;30.57;19.30;;;;;;;;;;6622305;28;20218;-82
2022/10/23 05:29:57;;;;;;;28.63;19.40;;;;;;;;;;6621890;28;20168;-82
2022/10/23 05:33:08;;;;;;;31.27;20.37;;;;;;;;;;6621963;28;20175;-81
2022/10/23 05:36:19;;;;;;;28.00;18.67;;;;;;;;;;6622177;28;20192;-81
2022/10/23 05:39:29;;;;;;;33.20;20.80;;;;;;;;;;6621426;28;20494;-81
2022/10/23 05:42:39;;;;;;;31.47;19.87;;;;;;;;;;6621355;28;20207;-82
2022/10/23 05:45:50;;;;;;;32.03;20.70;;;;;;;;;;6621280;28;20230;-81
2022/10/23 05:49:00;;;;;;;33.33;20.47;;;;;;;;;;6621334;28;20613;-82
2022/10/23 05:52:11;;;;;;;32.57;21.57;;;;;;;;;;6622039;28;20164;-82
2022/10/23 05:55:21;;;;;;;32.20;22.40;;;;;;;;;;6623838;28;20168;-82
2022/10/23 05:58:32;;;;;;;31.53;21.50;;;;;;;;;;6627084;28;20226;-83
2022/10/23 06:01:42;;;;;;;26.10;19.40;;;;;;;;;;6626205;28;20196;-83
2022/10/23 06:04:53;;;;;;;24.53;17.87;;;;;;;;;;6626120;28;20215;-83
2022/10/23 06:08:03;;;;;;;23.47;18.33;;;;;;;;;;6625695;28;20182;-83
2022/10/23 06:11:14;;;;;;;21.30;15.87;;;;;;;;;;6625561;28;20168;-83
2022/10/23 06:14:24;;;;;;;26.87;16.50;;;;;;;;;;6609002;28;20183;-83
2022/10/23 06:17:34;;;;;;;21.60;17.30;;;;;;;;;;6607849;28;20176;-83
2022/10/23 06:20:45;;;;;;;21.03;17.27;;;;;;;;;;6625348;28;20592;-83
2022/10/23 06:23:55;;;;;;;22.93;16.33;;;;;;;;;;6625180;28;20648;-83
2022/10/23 06:27:05;;;;;;;22.80;17.03;;;;;;;;;;6625102;28;20171;-83
2022/10/23 06:30:16;;;;;;;21.63;17.27;;;;;;;;;;6625772;28;20266;-82
2022/10/23 06:33:26;;;;;;;20.00;17.80;;;;;;;;;;6625656;28;20266;-83
2022/10/23 06:36:37;;;;;;;19.83;16.88;;;;;;;;;;6625314;28;20172;-83
2022/10/23 06:39:47;;;;;;;21.13;17.30;;;;;;;;;;6625225;28;20168;-82
2022/10/23 06:42:57;;;;;;;20.63;17.45;;;;;;;;;;6624719;28;20682;-82
2022/10/23 06:46:08;;;;;;;18.67;16.65;;;;;;;;;;6625053;28;20175;-83
2022/10/23 06:49:19;;;;;;;25.92;20.35;;;;;;;;;;6624963;28;20163;-82
2022/10/23 06:52:30;;;;;;;23.90;20.08;;;;;;;;;;6625294;28;20498;-82
2022/10/23 06:55:40;;;;;;;22.90;20.17;;;;;;;;;;6624729;28;20241;-82
2022/10/23 06:58:51;;;;;;;22.23;18.10;;;;;;;;;;6625168;28;20696;-81
2022/10/23 07:02:01;;;;;;;19.77;17.73;;;;;;;;;;6624169;28;20274;-83
2022/10/23 07:05:12;;;;;;;19.33;15.90;;;;;;;;;;6623827;28;20171;-82
2022/10/23 07:08:22;;;;;;;19.00;15.70;;;;;;;;;;6624863;28;20160;-83
2022/10/23 07:11:33;;;;;;;18.70;16.35;;;;;;;;;;6624140;28;20175;-82
2022/10/23 07:14:43;;;;;;;18.38;16.05;;;;;;;;;;6623839;28;20203;-82
2022/10/23 07:17:54;;;;;;;19.35;16.85;;;;;;;;;;6625409;28;20489;-83
2022/10/23 07:21:04;;;;;;;20.95;16.50;;;;;;;;;;6623859;28;20176;-83
2022/10/23 07:24:15;;;;;;;19.27;16.38;;;;;;;;;;6624434;28;20583;-82
2022/10/23 07:27:25;;;;;;;17.85;16.00;;;;;;;;;;6624195;28;20168;-83
2022/10/23 07:30:36;;;;;;;18.92;16.95;;;;;;;;;;6624103;28;20574;-82
2022/10/23 07:33:46;;;;;;;18.60;15.60;;;;;;;;;;6623886;28;20321;-83
2022/10/23 07:36:56;;;;;;;18.63;15.32;;;;;;;;;;6623638;28;20267;-83
2022/10/23 07:40:07;;;;;;;16.10;13.57;;;;;;;;;;6623326;28;20207;-83
2022/10/23 07:43:19;;;;;;;15.88;14.20;;;;;;;;;;6624242;28;20658;-83
2022/10/23 07:46:29;;;;;;;16.42;13.77;;;;;;;;;;6623531;28;20194;-82
2022/10/23 07:49:40;;;;;;;15.23;13.63;;;;;;;;;;6623730;28;20164;-83
2022/10/23 07:52:50;;;;;;;16.73;14.57;;;;;;;;;;6623390;28;20172;-83
2022/10/23 07:56:02;;;;;;;15.38;13.50;;;;;;;;;;6603458;28;20285;-81
2022/10/23 07:59:12;;;;;;;16.25;13.63;;;;;;;;;;6620689;28;20175;-81
2022/10/23 08:02:23;;;;;;;17.98;14.45;;;;;;;;;;6620578;28;20295;-82
2022/10/23 08:05:33;;;;;;;18.27;14.85;;;;;;;;;;6620821;28;20180;-82
2022/10/23 08:08:43;;;;;;;21.75;17.48;;;;;;;;;;6620957;28;20171;-82
2022/10/23 08:11:54;;;;;;;19.63;15.23;;;;;;;;;;6620481;28;20705;-82
2022/10/23 08:15:04;;;;;;;19.00;14.20;;;;;;;;;;6621357;28;20174;-81
2022/10/23 08:18:15;;;;;;;16.13;14.52;;;;;;;;;;6622543;28;20592;-81
2022/10/23 08:21:26;;;;;;;17.77;15.82;;;;;;;;;;6605053;28;20186;-81
2022/10/23 08:24:36;;;;;;;16.83;14.30;;;;;;;;;;6622286;28;20211;-81
2022/10/23 08:27:46;;;;;;;17.90;16.00;;;;;;;;;;6622677;28;20168;-82
2022/10/23 08:30:56;;;;;;;14.97;13.37;;;;;;;;;;6623306;28;20175;-81
2022/10/23 08:34:07;;;;;;;14.27;12.77;;;;;;;;;;6622399;28;20222;-81
2022/10/23 08:37:17;;;;;;;15.00;12.97;;;;;;;;;;6622855;28;20174;-82
2022/10/23 08:40:28;;;;;;;14.33;12.83;;;;;;;;;;6623116;28;20668;-84
2022/10/23 08:43:41;;;;;;;17.60;12.20;;;;;;;;;;6621142;28;20196;-82
2022/10/23 08:46:58;;;;;;;15.87;11.43;;;;;;;;;;6622028;28;20217;-82
2022/10/23 08:50:13;;;;;;;14.52;11.50;;;;;;;;;;6622193;28;20168;-83
2022/10/23 08:53:23;;;;;;;13.90;11.48;;;;;;;;;;6623095;28;20207;-83
2022/10/23 08:56:36;;;;;;;13.57;10.65;;;;;;;;;;6622256;28;20226;-82
2022/10/23 08:59:49;;;;;;;12.13;10.68;;;;;;;;;;6622098;28;20192;-82
2022/10/23 09:03:01;;;;;;;13.23;11.70;;;;;;;;;;6620940;28;20206;-83
2022/10/23 09:06:16;;;;;;;15.68;11.27;;;;;;;;;;6622027;28;20176;-82
2022/10/23 09:09:45;;;;;;;17.00;11.60;;;;;;;;;;6621891;28;20544;-82
2022/10/23 09:13:18;;;;;;;14.77;11.97;;;;;;;;;;6622090;28;20202;-83
2022/10/23 09:16:48;;;;;;;17.03;13.40;;;;;;;;;;6584227;28;20195;-85
2022/10/23 09:20:03;;;;;;;15.68;12.68;;;;;;;;;;6619453;28;20234;-82
2022/10/23 09:23:18;;;;;;;13.63;11.15;;;;;;;;;;6619751;28;20215;-83
2022/10/23 09:26:28;;;;;;;14.60;11.85;;;;;;;;;;6619326;28;20235;-82
2022/10/23 09:29:45;;;;;;;14.75;11.70;;;;;;;;;;6622899;28;20747;-82
2022/10/23 09:32:56;;;;;;;14.68;12.73;;;;;;;;;;6624515;28;20207;-83
2022/10/23 09:36:16;;;;;;;13.07;11.70;;;;;;;;;;6624679;28;20233;-84
2022/10/23 09:39:28;;;;;;;16.52;12.35;;;;;;;;;;6626701;28;20247;-82
2022/10/23 09:42:48;;;;;;;16.13;12.20;;;;;;;;;;6609087;28;20563;-82
2022/10/23 09:46:03;;;;;;;15.98;11.82;;;;;;;;;;6626733;28;20164;-82
2022/10/23 09:49:15;;;;;;;14.07;11.43;;;;;;;;;;6626026;28;20180;-82
2022/10/23 09:52:36;;;;;;;13.00;10.75;;;;;;;;;;6627561;28;20578;-82
2022/10/23 09:55:53;;;;;;;10.68;9.60;;;;;;;;;;6626600;28;20226;-82
2022/10/23 09:59:04;;;;;;;15.95;13.85;;;;;;;;;;6627083;28;20168;-83
2022/10/23 10:02:26;;;;;;;14.38;11.75;;;;;;;;;;6626472;28;20196;-82
2022/10/23 10:05:37;;;;;;;15.55;13.35;;;;;;;;;;6626272;28;20230;-83
2022/10/23 10:08:49;;;;;;;11.63;9.05;;;;;;;;;;6608129;28;20628;-82
2022/10/23 10:12:15;;;;;;;13.15;9.88;;;;;;;;;;6626435;28;20172;-82
2022/10/23 10:15:58;;;;;;;11.25;9.05;;;;;;;;;;6626368;28;20157;-82
2022/10/23 10:19:11;;;;;;;19.95;13.95;;;;;;;;;;6581349;28;20198;-83
2022/10/23 10:22:27;;;;;;;12.25;9.63;;;;;;;;;;6625732;28;20164;-84
2022/10/23 10:25:57;;;;;;;24.17;13.82;;;;;;;;;;6625487;28;20168;-83
2022/10/23 10:29:08;;;;;;;11.25;9.07;;;;;;;;;;6626351;28;20156;-82
2022/10/23 10:32:42;;;;;;;25.15;17.95;;;;;;;;;;6607514;28;20210;-83
2022/10/23 10:35:58;;;;;;;11.90;9.85;;;;;;;;;;6625276;28;20246;-82
2022/10/23 10:39:23;;;;;;;14.07;9.20;;;;;;;;;;6625271;28;20180;-83
2022/10/23 10:42:36;;;;;;;9.32;8.20;;;;;;;;;;6625672;28;20203;-81
2022/10/23 10:45:47;;;;;;;16.10;14.23;;;;;;;;;;6607458;28;20554;-83
2022/10/23 10:49:10;;;;;;;15.48;9.68;;;;;;;;;;6624786;28;20175;-82
2022/10/23 10:52:23;;;;;;;9.20;7.18;;;;;;;;;;6625495;28;20255;-82
2022/10/23 10:55:40;;;;;;;8.32;6.88;;;;;;;;;;6622259;28;20187;-84
2022/10/23 10:58:55;;;;;;;10.70;9.00;;;;;;;;;;6623480;28;20258;-83
2022/10/23 11:02:08;;;;;;;11.30;7.72;;;;;;;;;;6624826;28;20699;-82
2022/10/23 11:05:37;;;;;;;8.80;6.85;;;;;;;;;;6624742;28;20201;-82
2022/10/23 11:08:47;;;;;;;7.03;6.32;;;;;;;;;;6624666;28;20245;-83
2022/10/23 11:11:57;;;;;;;6.20;5.60;;;;;;;;;;6623984;28;20168;-83
2022/10/23 11:15:15;;;;;;;7.03;6.32;;;;;;;;;;6624537;28;20206;-83
2022/10/23 11:18:27;;;;;;;9.68;6.15;;;;;;;;;;6625096;28;20168;-83
2022/10/23 11:21:40;;;;;;;5.97;5.38;;;;;;;;;;6624334;28;20164;-83
2022/10/23 11:25:11;;;;;;;5.93;5.32;;;;;;;;;;6624127;28;20249;-81
2022/10/23 11:28:30;;;;;;;5.78;5.28;;;;;;;;;;6609138;28;20195;-82
2022/10/23 11:31:59;;;;;;;9.43;5.93;;;;;;;;;;6624580;28;20179;-83
2022/10/23 11:35:29;;;;;;;8.40;5.75;;;;;;;;;;6623517;28;20530;-83
2022/10/23 11:38:40;;;;;;;8.27;5.50;;;;;;;;;;6622974;28;20171;-83
2022/10/23 11:42:11;;;;;;;7.28;5.65;;;;;;;;;;6621148;28;20164;-81
2022/10/23 11:45:26;;;;;;;6.95;6.25;;;;;;;;;;6620619;28;20203;-81
2022/10/23 11:48:40;;;;;;;7.25;6.55;;;;;;;;;;6621399;28;20168;-83
2022/10/23 11:52:04;;;;;;;9.13;7.88;;;;;;;;;;6619937;28;20168;-83
2022/10/23 11:55:16;;;;;;;6.10;5.60;;;;;;;;;;6621130;28;20524;-82
2022/10/23 11:58:30;;;;;;;6.22;5.63;;;;;;;;;;6620990;28;20642;-81
2022/10/23 12:01:41;;;;;;;6.25;5.68;;;;;;;;;;6622720;28;20192;-81
2022/10/23 12:04:52;;;;;;;7.00;6.30;;;;;;;;;;6623268;28;20222;-83
2022/10/23 12:08:04;;;;;;;6.90;6.18;;;;;;;;;;6622755;28;20524;-82
2022/10/23 12:11:44;;;;;;;8.02;5.88;;;;;;;;;;6605276;28;20190;-83
2022/10/23 12:15:06;;;;;;;9.23;6.32;;;;;;;;;;6605364;28;20283;-82
2022/10/23 12:18:16;;;;;;;6.75;5.45;;;;;;;;;;6623401;28;20163;-82
2022/10/23 12:21:33;;;;;;;8.75;7.45;;;;;;;;;;6622714;28;20175;-83
2022/10/23 12:25:01;;;;;;;9.30;8.40;;;;;;;;;;6622972;28;20203;-83
2022/10/23 12:28:21;;;;;;;8.85;7.13;;;;;;;;;;6623119;28;20155;-83
2022/10/23 12:31:49;;;;;;;6.70;6.10;;;;;;;;;;6623399;28;20168;-83
2022/10/23 12:35:15;;;;;;;6.45;5.93;;;;;;;;;;6620534;28;20257;-83
2022/10/23 12:38:26;;;;;;;6.15;5.60;;;;;;;;;;6620187;28;20171;-82
2022/10/23 12:41:37;;;;;;;7.20;5.57;;;;;;;;;;6619880;28;20862;-83
2022/10/23 12:45:00;;;;;;;6.15;5.18;;;;;;;;;;6620131;28;20200;-83
2022/10/23 12:48:18;;;;;;;5.95;5.20;;;;;;;;;;6620077;28;20168;-82
2022/10/23 12:51:30;;;;;;;6.50;5.60;;;;;;;;;;6620589;28;20202;-82
2022/10/23 12:54:41;;;;;;;5.65;5.15;;;;;;;;;;6621426;28;20171;-83
2022/10/23 12:57:52;;;;;;;5.72;5.18;;;;;;;;;;6622952;28;20230;-83
2022/10/23 13:01:03;;;;;;;6.25;5.55;;;;;;;;;;6621810;28;20275;-83
2022/10/23 13:04:30;;;;;;;6.30;5.70;;;;;;;;;;6606938;28;20734;-83
2022/10/23 13:07:47;;;;;;;8.82;5.40;;;;;;;;;;6627621;28;20174;-83
2022/10/23 13:10:57;;;;;;;6.45;5.85;;;;;;;;;;6609533;28;20172;-83
2022/10/23 13:14:13;;;;;;;5.45;4.97;;;;;;;;;;6627482;28;20210;-83
2022/10/23 13:17:35;;;;;;;6.20;4.80;;;;;;;;;;6627562;28;20168;-83
2022/10/23 13:20:51;;;;;;;5.85;5.25;;;;;;;;;;6628082;28;20184;-82
2022/10/23 13:24:02;;;;;;;5.45;4.95;;;;;;;;;;6627270;28;20207;-82
2022/10/23 13:27:32;;;;;;;5.82;4.82;;;;;;;;;;6627761;28;20202;-81
2022/10/23 13:30:44;;;;;;;4.80;4.40;;;;;;;;;;6626654;28;20164;-83
2022/10/23 13:33:58;;;;;;;5.40;4.90;;;;;;;;;;6626462;28;20171;-82
2022/10/23 13:37:27;;;;;;;5.55;4.40;;;;;;;;;;6608924;28;20680;-82
2022/10/23 13:40:37;;;;;;;5.30;4.80;;;;;;;;;;6626416;28;20647;-81
2022/10/23 13:43:47;;;;;;;5.15;4.65;;;;;;;;;;6626499;28;20196;-81
2022/10/23 13:46:58;;;;;;;6.05;4.70;;;;;;;;;;6627058;28;20172;-81
2022/10/23 13:50:10;;;;;;;5.65;5.10;;;;;;;;;;6626699;28;20199;-81
2022/10/23 13:53:20;;;;;;;5.47;4.97;;;;;;;;;;6626215;28;20175;-82
2022/10/23 13:56:30;;;;;;;5.35;4.85;;;;;;;;;;6626469;28;20744;-81
2022/10/23 13:59:41;;;;;;;5.20;4.70;;;;;;;;;;6626284;28;20195;-81
2022/10/23 14:02:51;;;;;;;5.72;5.10;;;;;;;;;;6626291;28;20200;-82
2022/10/23 14:06:02;;;;;;;5.63;4.57;;;;;;;;;;6625727;28;20171;-82
2022/10/23 14:09:14;;;;;;;6.37;5.77;;;;;;;;;;6626450;28;20172;-81
2022/10/23 14:12:24;;;;;;;5.47;4.97;;;;;;;;;;6625596;28;20205;-80
2022/10/23 14:15:34;;;;;;;6.50;5.90;;;;;;;;;;6624992;28;20617;-81
2022/10/23 14:18:45;;;;;;;7.45;5.78;;;;;;;;;;6625841;28;20176;-82
2022/10/23 14:21:55;;;;;;;6.67;5.97;;;;;;;;;;6624108;28;20168;-82
2022/10/23 14:25:06;;;;;;;6.73;5.83;;;;;;;;;;6623045;28;20215;-82
2022/10/23 14:28:16;;;;;;;7.07;6.40;;;;;;;;;;6622985;28;20226;-83
2022/10/23 14:31:26;;;;;;;8.10;7.23;;;;;;;;;;6623858;28;20262;-81
2022/10/23 14:34:39;;;;;;;6.10;5.60;;;;;;;;;;6625510;28;20168;-82
2022/10/23 14:37:50;;;;;;;7.63;6.17;;;;;;;;;;6624978;28;20172;-83
2022/10/23 14:41:00;;;;;;;7.00;6.30;;;;;;;;;;6625045;28;20210;-83
2022/10/23 14:44:10;;;;;;;7.57;6.50;;;;;;;;;;6624900;28;20203;-83
2022/10/23 14:47:22;;;;;;;6.60;5.53;;;;;;;;;;6625174;28;20172;-83
2022/10/23 14:50:34;;;;;;;10.77;8.97;;;;;;;;;;6624983;28;20178;-83
2022/10/23 14:53:44;;;;;;;8.17;7.37;;;;;;;;;;6625999;28;20172;-83
2022/10/23 14:56:54;;;;;;;8.50;7.60;;;;;;;;;;6624815;28;20227;-84
2022/10/23 15:00:05;;;;;;;10.30;8.57;;;;;;;;;;6625185;28;20196;-84
2022/10/23 15:03:17;;;;;;;14.30;12.90;;;;;;;;;;6624729;28;20200;-84
2022/10/23 15:06:27;;;;;;;11.17;10.00;;;;;;;;;;6622270;28;20210;-84
2022/10/23 15:09:38;;;;;;;11.80;10.60;;;;;;;;;;6622440;28;20168;-83
2022/10/23 15:12:48;;;;;;;12.70;11.40;;;;;;;;;;6623582;28;20551;-84
2022/10/23 15:16:03;;;;;;;13.00;11.43;;;;;;;;;;6624189;28;20202;-84
2022/10/23 15:19:15;;;;;;;10.80;9.70;;;;;;;;;;6624762;28;20179;-83
2022/10/23 15:22:26;;;;;;;12.07;10.87;;;;;;;;;;6623540;28;20187;-84
2022/10/23 15:25:39;;;;;;;15.23;12.57;;;;;;;;;;6624079;28;20163;-84
2022/10/23 15:28:53;;;;;;;10.77;9.73;;;;;;;;;;6606220;28;20628;-85
2022/10/23 15:32:04;;;;;;;11.43;10.10;;;;;;;;;;6624005;28;20186;-83
2022/10/23 15:35:14;;;;;;;11.90;10.77;;;;;;;;;;6624096;28;20362;-84
2022/10/23 15:38:25;;;;;;;13.20;11.20;;;;;;;;;;6623512;28;20172;-83
2022/10/23 15:41:36;;;;;;;13.10;11.73;;;;;;;;;;6623777;28;20175;-83
2022/10/23 15:44:47;;;;;;;13.23;11.40;;;;;;;;;;6622814;28;20206;-82
2022/10/23 15:47:57;;;;;;;13.10;11.70;;;;;;;;;;6603697;28;20547;-82
2022/10/23 15:51:08;;;;;;;14.23;12.17;;;;;;;;;;6621006;28;20176;-83
2022/10/23 15:54:30;;;;;;;14.57;12.90;;;;;;;;;;6621299;28;20168;-84
2022/10/23 15:57:41;;;;;;;16.17;14.03;;;;;;;;;;6621219;28;20227;-81
2022/10/23 16:00:51;;;;;;;17.60;14.80;;;;;;;;;;6620694;28;20723;-83
2022/10/23 16:04:02;;;;;;;18.03;15.27;;;;;;;;;;6621294;28;20682;-81
2022/10/23 16:07:12;;;;;;;18.43;16.47;;;;;;;;;;6622586;28;20186;-81
2022/10/23 16:10:23;;;;;;;18.40;16.47;;;;;;;;;;6622318;28;20175;-82
2022/10/23 16:13:34;;;;;;;20.17;16.40;;;;;;;;;;6621338;28;20262;-81
2022/10/23 16:16:44;;;;;;;20.13;16.30;;;;;;;;;;6622408;28;20175;-81
2022/10/23 16:19:54;;;;;;;22.33;17.37;;;;;;;;;;6623387;28;20170;-82
2022/10/23 16:23:04;;;;;;;26.00;19.13;;;;;;;;;;6621445;28;20257;-82
2022/10/23 16:26:15;;;;;;;24.23;18.73;;;;;;;;;;6621566;28;20172;-81
2022/10/23 16:29:27;;;;;;;24.07;19.23;;;;;;;;;;6622200;28;20520;-81
2022/10/23 16:32:37;;;;;;;28.00;21.77;;;;;;;;;;6622437;28;20257;-81
2022/10/23 16:35:48;;;;;;;26.07;20.80;;;;;;;;;;6622033;28;20176;-81
2022/10/23 16:39:00;;;;;;;32.70;24.83;;;;;;;;;;6621878;28;20233;-80
2022/10/23 16:42:10;;;;;;;50.17;33.50;;;;;;;;;;6623470;28;20175;-80
2022/10/23 16:45:20;;;;;;;65.80;41.37;;;;;;;;;;6621817;28;20204;-81
2022/10/23 16:48:33;;;;;;;78.53;50.17;;;;;;;;;;6621733;28;20167;-82
2022/10/23 16:51:43;;;;;;;82.40;55.83;;;;;;;;;;6622517;28;20172;-81
2022/10/23 16:54:53;;;;;;;65.30;48.67;;;;;;;;;;6622201;28;20210;-81
2022/10/23 16:58:04;;;;;;;62.87;40.87;;;;;;;;;;6622087;28;20246;-82
2022/10/23 17:01:19;;;;;;;40.33;29.33;;;;;;;;;;6621617;28;20206;-81
2022/10/23 17:04:29;;;;;;;40.93;32.00;;;;;;;;;;6622071;28;20330;-81
2022/10/23 17:07:39;;;;;;;45.20;33.47;;;;;;;;;;6621593;28;20171;-82
2022/10/23 17:11:01;;;;;;;38.70;31.37;;;;;;;;;;6621806;28;20227;-82
2022/10/23 17:14:16;;;;;;;42.33;32.00;;;;;;;;;;6622178;28;20164;-81
2022/10/23 17:17:26;;;;;;;39.43;30.43;;;;;;;;;;6622392;28;20172;-81
2022/10/23 17:20:37;;;;;;;41.07;32.93;;;;;;;;;;6622163;28;20171;-82
2022/10/23 17:23:48;;;;;;;40.47;33.57;;;;;;;;;;6621466;28;20211;-82
2022/10/23 17:26:58;;;;;;;49.47;36.67;;;;;;;;;;6621962;28;20176;-81
2022/10/23 17:30:09;;;;;;;48.73;35.47;;;;;;;;;;6621657;28;20172;-82
2022/10/23 17:33:19;;;;;;;45.60;35.03;;;;;;;;;;6621440;28;20684;-81
2022/10/23 17:36:30;;;;;;;48.30;36.73;;;;;;;;;;6621308;28;20259;-81
2022/10/23 17:39:41;;;;;;;60.27;47.23;;;;;;;;;;6622060;28;20595;-81
2022/10/23 17:42:51;;;;;;;79.43;58.17;;;;;;;;;;6620008;28;20196;-82
2022/10/23 17:46:05;;;;;;;71.00;52.70;;;;;;;;;;6621395;28;20688;-81
2022/10/23 17:49:16;;;;;;;57.60;44.77;;;;;;;;;;6622036;28;20168;-81
2022/10/23 17:52:27;;;;;;;56.17;42.93;;;;;;;;;;6608668;28;20528;-80
2022/10/23 17:55:38;;;;;;;54.87;41.20;;;;;;;;;;6626091;28;20172;-81
2022/10/23 17:58:49;;;;;;;67.20;45.70;;;;;;;;;;6608548;28;20176;-81
2022/10/23 18:02:00;;;;;;;65.13;48.10;;;;;;;;;;6625869;28;20211;-82
2022/10/23 18:05:10;;;;;;;60.90;45.83;;;;;;;;;;6626172;28;20254;-81
2022/10/23 18:08:20;;;;;;;69.70;52.00;;;;;;;;;;6627377;28;20190;-81
2022/10/23 18:11:34;;;;;;;83.60;58.40;;;;;;;;;;6626603;28;20198;-82
2022/10/23 18:14:44;;;;;;;78.83;57.83;;;;;;;;;;6625710;28;20183;-82
2022/10/23 18:17:54;;;;;;;78.57;55.53;;;;;;;;;;6625836;28;20513;-81
2022/10/23 18:21:05;;;;;;;75.97;55.87;;;;;;;;;;6626080;28;20208;-82
2022/10/23 18:24:16;;;;;;;91.23;60.63;;;;;;;;;;6624974;28;20306;-80
2022/10/23 18:27:26;;;;;;;84.70;61.67;;;;;;;;;;6625694;28;20524;-82
2022/10/23 18:30:37;;;;;;;87.67;60.40;;;;;;;;;;6624741;28;20180;-82
2022/10/23 18:33:47;;;;;;;85.63;59.73;;;;;;;;;;6624988;28;20175;-81
2022/10/23 18:36:59;;;;;;;91.13;63.87;;;;;;;;;;6624825;28;20168;-82
2022/10/23 18:40:11;;;;;;;85.80;62.20;;;;;;;;;;6606545;28;20612;-82
2022/10/23 18:43:22;;;;;;;83.47;59.10;;;;;;;;;;6606327;28;20659;-81
2022/10/23 18:46:33;;;;;;;80.93;58.87;;;;;;;;;;6624682;28;20183;-83
2022/10/23 18:49:43;;;;;;;83.63;61.10;;;;;;;;;;6624667;28;20176;-83
2022/10/23 18:52:54;;;;;;;86.50;60.80;;;;;;;;;;6624909;28;20171;-82